This is the latest recevied weather packets stored in our database for station/object KJ4EWA. If no packets are shown the sender has not sent any weather packets the latest 10 day(s).
| Time | Temp. | Humidity | Pressure | Rain* | Wind** | Luminosity | Snow |
|---|---|---|---|---|---|---|---|
| 1777945154 | 15.56° C | 86% | 1018.5 hPa | 0 mm | - | 0 W/m² | - |
| 1777944850 | 15.56° C | 86% | 1018.2 hPa | 0 mm | - | 0 W/m² | - |
| 1777944549 | 15.56° C | 84% | 1018.6 hPa | 0 mm | - | 0 W/m² | - |
| 1777944246 | 15.56° C | 84% | 1018.1 hPa | 0 mm | - | 0 W/m² | - |
| 1777943942 | 16.11° C | 81% | 1018.3 hPa | 0 mm | - | 0 W/m² | - |
| 1777943639 | 16.11° C | 80% | 1018.3 hPa | 0 mm | - | 0 W/m² | - |
| 1777943335 | 16.67° C | 79% | 1018.2 hPa | 0 mm | - | 0 W/m² | - |
| 1777943031 | 17.22° C | 78% | 1018.3 hPa | 0 mm | - | 0 W/m² | - |
| 1777942727 | 17.78° C | 76% | 1018.3 hPa | 0 mm | - | 0 W/m² | - |
| 1777942424 | 18.33° C | 74% | 1018.5 hPa | 0 mm | - | 0 W/m² | - |
| 1777942122 | 18.89° C | 72% | 1018.4 hPa | 0 mm | - | 0 W/m² | - |
| 1777941818 | 19.44° C | 70% | 1018.6 hPa | 0 mm | - | 0 W/m² | - |
| 1777941516 | 20° C | 68% | 1018.4 hPa | 0 mm | - | 0 W/m² | - |
| 1777941213 | 20.56° C | 64% | 1018.3 hPa | 0 mm | - | 0 W/m² | - |
| 1777940908 | 20.56° C | 64% | 1018.3 hPa | 0 mm | - | 0 W/m² | - |
| 1777940606 | 20.56° C | 63% | 1018.3 hPa | 0 mm | - | 1 W/m² | - |
| 1777940304 | 21.11° C | 63% | 1018.2 hPa | 0 mm | - | 4 W/m² | - |
| 1777940000 | 21.67° C | 62% | 1018.1 hPa | 0 mm | - | 7 W/m² | - |
| 1777939698 | 21.67° C | 61% | 1018.2 hPa | 0 mm | - | 10 W/m² | - |
| 1777939396 | 21.67° C | 60% | 1018.2 hPa | 0 mm | - | 12 W/m² | - |
| 1777939092 | 21.67° C | 59% | 1018.2 hPa | 0 mm | - | 15 W/m² | - |
| 1777938789 | 22.22° C | 59% | 1018.4 hPa | 0 mm | - | 17 W/m² | - |
| 1777938486 | 22.22° C | 58% | 1018.4 hPa | 0 mm | - | 20 W/m² | - |
| 1777938184 | 22.22° C | 59% | 1018.1 hPa | 0 mm | - | 22 W/m² | - |
| 1777937880 | 22.22° C | 59% | 1018.4 hPa | 0 mm | - | 23 W/m² | - |
* Rain latest hour (hover to see other rain measurements)
** Current wind speed in m/s (hover to see current wind gust speed)